Spring Ploeg — ZGFI7 — position and weather

sailwx.info

Track history (hours):
 
Tides and Currents Weather Stations Pressure Air Temp Water Temp Dewpoint Dewpoint Depression Visibility Wind Speed Wind Dir Waves Ship Positions

Spring Ploeg

Last reported at 2018-Feb-14 07:51 UTC. Time now 2018-Feb-19 00:24 UTC.
Position N 31°55' W 080°22'.

Length 147 m; draft 10.2 m.

Type: Tanker. MMSI: 319109600.

Date/timePositionNaut miles runAvg speedWind from/ knotsBaromVisibWave heightAir tempDewpointWater temp
2018-Feb-14 07:51N 31°55' W 080°22'512.0
2018-Feb-14 07:28N 31°55' W 080°27'612.1
2018-Feb-14 07:00N 31°55' W 080°34'612.1
2018-Feb-14 06:30N 31°56' W 080°41'611.2
2018-Feb-14 06:00N 31°59' W 080°46'510.8
2018-Feb-14 05:30N 32°02' W 080°52'611.2
2018-Feb-14 05:00N 32°04' W 080°58'4 8.8
2018-Feb-14 04:30N 32°05' W 081°03'3 6.4
2018-Feb-14 04:00N 32°06' W 081°07'2 3.2
2018-Feb-14 03:30N 32°07' W 081°08'0 0.0
2018-Feb-14 02:50N 32°07' W 081°08'0 0.0
2018-Feb-14 02:26N 32°07' W 081°08'0 0.0
2018-Feb-14 01:50N 32°07' W 081°08'0 0.0
2018-Feb-14 01:26N 32°07' W 081°08'0 0.0
2018-Feb-14 00:56N 32°07' W 081°08'0 0.0
2018-Feb-14 00:26N 32°07' W 081°08'0 0.0
2018-Feb-13 23:56N 32°07' W 081°08'0 0.0
2018-Feb-13 23:26N 32°07' W 081°08'0 0.0
2018-Feb-13 22:50N 32°07' W 081°08'0 0.0
2018-Feb-13 22:26N 32°07' W 081°08'0 0.0
2018-Feb-13 21:56N 32°07' W 081°08'0 0.0
2018-Feb-13 21:14N 32°07' W 081°08'0 0.0
2018-Feb-13 20:50N 32°07' W 081°08'0 0.0
2018-Feb-13 20:26N 32°07' W 081°08'0 0.0
2018-Feb-13 19:56N 32°07' W 081°08'0 0.0
2018-Feb-13 19:26N 32°07' W 081°08'0 0.0
2018-Feb-13 18:56N 32°07' W 081°08'0 0.0
2018-Feb-13 18:26N 32°07' W 081°08'0 0.0
2018-Feb-13 17:56N 32°07' W 081°08'0 0.0
2018-Feb-13 17:26N 32°07' W 081°08'0 0.0
2018-Feb-13 16:56N 32°07' W 081°08'0 0.0
2018-Feb-13 16:26N 32°07' W 081°08'0 0.0
2018-Feb-13 15:56N 32°07' W 081°08'0 0.0
2018-Feb-13 15:26N 32°07' W 081°08'0 0.0
2018-Feb-13 14:56N 32°07' W 081°08'0 0.0
2018-Feb-13 14:26N 32°07' W 081°08'0 0.0
2018-Feb-13 13:50N 32°07' W 081°08'0 0.0
2018-Feb-13 13:20N 32°07' W 081°08'0 0.0
2018-Feb-13 12:56N 32°07' W 081°08'0 0.0
2018-Feb-13 12:26N 32°07' W 081°08'0 0.0
2018-Feb-13 11:56N 32°07' W 081°08'0 0.0
2018-Feb-13 11:26N 32°07' W 081°08'0 0.0
2018-Feb-13 10:56N 32°07' W 081°08'0 0.0
2018-Feb-13 10:26N 32°07' W 081°08'0 0.0
2018-Feb-13 09:56N 32°07' W 081°08'0 0.0
2018-Feb-13 09:26N 32°07' W 081°08'0 0.0
2018-Feb-13 08:56N 32°07' W 081°08'0 0.0
2018-Feb-13 08:26N 32°07' W 081°08'0 0.0
2018-Feb-13 07:56N 32°07' W 081°08'0 0.0
2018-Feb-13 07:26N 32°07' W 081°08'0 0.0
2018-Feb-13 06:56N 32°07' W 081°08'0 0.0
2018-Feb-13 06:26N 32°07' W 081°08'0 0.0
2018-Feb-13 05:56N 32°07' W 081°08'0 0.0
2018-Feb-13 05:26N 32°07' W 081°08'0 0.0
2018-Feb-13 04:56N 32°07' W 081°08'0 0.0
2018-Feb-13 04:30N 32°07' W 081°08'1 1.5
2018-Feb-13 04:00N 32°08' W 081°08'3 5.4
2018-Feb-13 03:30N 32°06' W 081°06'3 6.0
2018-Feb-13 03:00N 32°05' W 081°03'3 6.3
2018-Feb-13 02:30N 32°05' W 080°59'510.1
2018-Feb-13 02:00N 32°02' W 080°54'510.6
2018-Feb-13 01:30N 32°01' W 080°48'911.6
2018-Feb-13 00:46N 31°57' W 080°39'310.0
2018-Feb-13 00:29N 31°58' W 080°36'1 0.3
2018-Feb-12 20:28N 31°58' W 080°35'0 0.0
2018-Feb-12 19:34N 31°58' W 080°35'0 0.1
2018-Feb-12 19:28N 31°58' W 080°35'0 0.2
2018-Feb-12 19:01N 31°58' W 080°35'3 6.2
2018-Feb-12 18:31N 31°55' W 080°34'29515.2
2018-Feb-11 23:04N 27°03' W 079°50'217.2
2018-Feb-11 22:56N 27°01' W 079°50'717.1
2018-Feb-11 22:30N 26°53' W 079°50'2017.0
2018-Feb-11 21:19N 26°33' W 079°50'516.8
2018-Feb-11 21:00N 26°28' W 079°50'816.5
2018-Feb-11 20:30N 26°20' W 079°50'816.4
2018-Feb-11 20:00N 26°11' W 079°50'816.6
2018-Feb-11 19:30N 26°03' W 079°52'816.7
2018-Feb-11 19:00N 25°55' W 079°53'816.8
2018-Feb-11 18:30N 25°47' W 079°55'816.7
2018-Feb-11 18:00N 25°38' W 079°56'816.8
2018-Feb-11 17:30N 25°30' W 079°58'  
2018-Feb-06 02:24N 29°29' W 094°52'511.4
2018-Feb-06 02:00N 29°33' W 094°54'611.0
2018-Feb-06 01:29N 29°38' W 094°58'510.2
2018-Feb-06 01:00N 29°42' W 095°00'4 7.6
2018-Feb-06 00:29N 29°45' W 095°04'2 3.6
2018-Feb-05 23:58N 29°45' W 095°06'1 0.0
2018-Feb-05 01:45N 29°46' W 095°05'2 7.2
2018-Feb-05 01:28N 29°44' W 095°03'3 5.7
2018-Feb-05 01:00N 29°43' W 095°01'4 9.0
2018-Feb-05 00:30N 29°39' W 094°58'5 9.3
2018-Feb-05 00:00N 29°35' W 094°56'  
Track history (hours):
 
Tides and Currents Weather Stations Pressure Air Temp Water Temp Dewpoint Dewpoint Depression Visibility Wind Speed Wind Dir Waves Ship Positions

Spring Ploeg

Last reported at 2018-Feb-14 07:51 UTC. Time now 2018-Feb-19 00:24 UTC.
Position N 31°55' W 080°22'.

Length 147 m; draft 10.2 m.

Type: Tanker. MMSI: 319109600.

Date/timePositionNaut miles runAvg speedWind from/ knotsBaromVisibWave heightAir tempDewpointWater temp
2018-Feb-14 07:51N 31°55' W 080°22'512.0
2018-Feb-14 07:28N 31°55' W 080°27'612.1
2018-Feb-14 07:00N 31°55' W 080°34'612.1
2018-Feb-14 06:30N 31°56' W 080°41'611.2
2018-Feb-14 06:00N 31°59' W 080°46'510.8
2018-Feb-14 05:30N 32°02' W 080°52'611.2
2018-Feb-14 05:00N 32°04' W 080°58'4 8.8
2018-Feb-14 04:30N 32°05' W 081°03'3 6.4
2018-Feb-14 04:00N 32°06' W 081°07'2 3.2
2018-Feb-14 03:30N 32°07' W 081°08'0 0.0
2018-Feb-14 02:50N 32°07' W 081°08'0 0.0
2018-Feb-14 02:26N 32°07' W 081°08'0 0.0
2018-Feb-14 01:50N 32°07' W 081°08'0 0.0
2018-Feb-14 01:26N 32°07' W 081°08'0 0.0
2018-Feb-14 00:56N 32°07' W 081°08'0 0.0
2018-Feb-14 00:26N 32°07' W 081°08'0 0.0
2018-Feb-13 23:56N 32°07' W 081°08'0 0.0
2018-Feb-13 23:26N 32°07' W 081°08'0 0.0
2018-Feb-13 22:50N 32°07' W 081°08'0 0.0
2018-Feb-13 22:26N 32°07' W 081°08'0 0.0
2018-Feb-13 21:56N 32°07' W 081°08'0 0.0
2018-Feb-13 21:14N 32°07' W 081°08'0 0.0
2018-Feb-13 20:50N 32°07' W 081°08'0 0.0
2018-Feb-13 20:26N 32°07' W 081°08'0 0.0
2018-Feb-13 19:56N 32°07' W 081°08'0 0.0
2018-Feb-13 19:26N 32°07' W 081°08'0 0.0
2018-Feb-13 18:56N 32°07' W 081°08'0 0.0
2018-Feb-13 18:26N 32°07' W 081°08'0 0.0
2018-Feb-13 17:56N 32°07' W 081°08'0 0.0
2018-Feb-13 17:26N 32°07' W 081°08'0 0.0
2018-Feb-13 16:56N 32°07' W 081°08'0 0.0
2018-Feb-13 16:26N 32°07' W 081°08'0 0.0
2018-Feb-13 15:56N 32°07' W 081°08'0 0.0
2018-Feb-13 15:26N 32°07' W 081°08'0 0.0
2018-Feb-13 14:56N 32°07' W 081°08'0 0.0
2018-Feb-13 14:26N 32°07' W 081°08'0 0.0
2018-Feb-13 13:50N 32°07' W 081°08'0 0.0
2018-Feb-13 13:20N 32°07' W 081°08'0 0.0
2018-Feb-13 12:56N 32°07' W 081°08'0 0.0
2018-Feb-13 12:26N 32°07' W 081°08'0 0.0
2018-Feb-13 11:56N 32°07' W 081°08'0 0.0
2018-Feb-13 11:26N 32°07' W 081°08'0 0.0
2018-Feb-13 10:56N 32°07' W 081°08'0 0.0
2018-Feb-13 10:26N 32°07' W 081°08'0 0.0
2018-Feb-13 09:56N 32°07' W 081°08'0 0.0
2018-Feb-13 09:26N 32°07' W 081°08'0 0.0
2018-Feb-13 08:56N 32°07' W 081°08'0 0.0
2018-Feb-13 08:26N 32°07' W 081°08'0 0.0
2018-Feb-13 07:56N 32°07' W 081°08'0 0.0
2018-Feb-13 07:26N 32°07' W 081°08'0 0.0
2018-Feb-13 06:56N 32°07' W 081°08'0 0.0
2018-Feb-13 06:26N 32°07' W 081°08'0 0.0
2018-Feb-13 05:56N 32°07' W 081°08'0 0.0
2018-Feb-13 05:26N 32°07' W 081°08'0 0.0
2018-Feb-13 04:56N 32°07' W 081°08'0 0.0
2018-Feb-13 04:30N 32°07' W 081°08'1 1.5
2018-Feb-13 04:00N 32°08' W 081°08'3 5.4
2018-Feb-13 03:30N 32°06' W 081°06'3 6.0
2018-Feb-13 03:00N 32°05' W 081°03'3 6.3
2018-Feb-13 02:30N 32°05' W 080°59'510.1
2018-Feb-13 02:00N 32°02' W 080°54'510.6
2018-Feb-13 01:30N 32°01' W 080°48'911.6
2018-Feb-13 00:46N 31°57' W 080°39'310.0
2018-Feb-13 00:29N 31°58' W 080°36'1 0.3
2018-Feb-12 20:28N 31°58' W 080°35'0 0.0
2018-Feb-12 19:34N 31°58' W 080°35'0 0.1
2018-Feb-12 19:28N 31°58' W 080°35'0 0.2
2018-Feb-12 19:01N 31°58' W 080°35'3 6.2
2018-Feb-12 18:31N 31°55' W 080°34'29515.2
2018-Feb-11 23:04N 27°03' W 079°50'217.2
2018-Feb-11 22:56N 27°01' W 079°50'717.1
2018-Feb-11 22:30N 26°53' W 079°50'2017.0
2018-Feb-11 21:19N 26°33' W 079°50'516.8
2018-Feb-11 21:00N 26°28' W 079°50'816.5
2018-Feb-11 20:30N 26°20' W 079°50'816.4
2018-Feb-11 20:00N 26°11' W 079°50'816.6
2018-Feb-11 19:30N 26°03' W 079°52'816.7
2018-Feb-11 19:00N 25°55' W 079°53'816.8
2018-Feb-11 18:30N 25°47' W 079°55'816.7
2018-Feb-11 18:00N 25°38' W 079°56'816.8
2018-Feb-11 17:30N 25°30' W 079°58'  
2018-Feb-06 02:24N 29°29' W 094°52'511.4
2018-Feb-06 02:00N 29°33' W 094°54'611.0
2018-Feb-06 01:29N 29°38' W 094°58'510.2
2018-Feb-06 01:00N 29°42' W 095°00'4 7.6
2018-Feb-06 00:29N 29°45' W 095°04'2 3.6
2018-Feb-05 23:58N 29°45' W 095°06'1 0.0
2018-Feb-05 01:45N 29°46' W 095°05'2 7.2
2018-Feb-05 01:28N 29°44' W 095°03'3 5.7
2018-Feb-05 01:00N 29°43' W 095°01'4 9.0
2018-Feb-05 00:30N 29°39' W 094°58'5 9.3
2018-Feb-05 00:00N 29°35' W 094°56'  

Dump ship's entire track history